sensor_id;sensor_type;location;lat;lon;timestamp;pressure;altitude;pressure_sealevel;temperature;humidity
81397;BME280;70852;49.908;8.126;2023-07-09T00:01:26;100527.91;;;19.21;64.52
81397;BME280;70852;49.908;8.126;2023-07-09T00:03:52;100545.41;;;19.14;64.20
81397;BME280;70852;49.908;8.126;2023-07-09T00:06:19;100547.38;;;19.14;65.15
81397;BME280;70852;49.908;8.126;2023-07-09T00:08:46;100549.75;;;19.12;65.05
81397;BME280;70852;49.908;8.126;2023-07-09T00:11:18;100554.84;;;19.06;64.34
81397;BME280;70852;49.908;8.126;2023-07-09T00:13:46;100552.53;;;19.12;64.45
81397;BME280;70852;49.908;8.126;2023-07-09T00:16:15;100545.75;;;19.13;64.30
81397;BME280;70852;49.908;8.126;2023-07-09T00:18:42;100550.63;;;19.16;63.98
81397;BME280;70852;49.908;8.126;2023-07-09T00:21:08;100555.06;;;19.17;64.32
81397;BME280;70852;49.908;8.126;2023-07-09T00:23:40;100552.31;;;19.20;63.60
81397;BME280;70852;49.908;8.126;2023-07-09T00:26:10;100551.03;;;19.18;63.49
81397;BME280;70852;49.908;8.126;2023-07-09T00:28:35;100554.25;;;19.16;63.74
81397;BME280;70852;49.908;8.126;2023-07-09T00:31:01;100551.72;;;19.11;64.05
81397;BME280;70852;49.908;8.126;2023-07-09T00:33:28;100555.72;;;19.10;64.42
81397;BME280;70852;49.908;8.126;2023-07-09T00:35:57;100557.19;;;19.04;65.00
81397;BME280;70852;49.908;8.126;2023-07-09T00:38:23;100561.41;;;18.94;65.17
81397;BME280;70852;49.908;8.126;2023-07-09T00:43:30;100552.44;;;18.85;64.60
81397;BME280;70852;49.908;8.126;2023-07-09T00:49:01;100562.28;;;18.79;65.07
81397;BME280;70852;49.908;8.126;2023-07-09T00:51:30;100561.38;;;18.75;65.62
81397;BME280;70852;49.908;8.126;2023-07-09T00:54:05;100558.81;;;18.67;66.00
81397;BME280;70852;49.908;8.126;2023-07-09T00:56:42;100559.22;;;18.49;66.46
81397;BME280;70852;49.908;8.126;2023-07-09T00:59:17;100555.81;;;18.40;67.06
81397;BME280;70852;49.908;8.126;2023-07-09T01:01:45;100561.91;;;18.46;66.96
81397;BME280;70852;49.908;8.126;2023-07-09T01:04:18;100554.06;;;18.51;66.74
81397;BME280;70852;49.908;8.126;2023-07-09T01:06:51;100555.06;;;18.59;67.07
81397;BME280;70852;49.908;8.126;2023-07-09T01:09:17;100561.56;;;18.47;66.95
81397;BME280;70852;49.908;8.126;2023-07-09T01:11:43;100557.31;;;18.53;67.05
81397;BME280;70852;49.908;8.126;2023-07-09T01:14:13;100559.06;;;18.42;67.02
81397;BME280;70852;49.908;8.126;2023-07-09T01:16:47;100555.28;;;18.35;66.18
81397;BME280;70852;49.908;8.126;2023-07-09T01:19:20;100553.50;;;18.26;66.94
81397;BME280;70852;49.908;8.126;2023-07-09T01:21:48;100559.25;;;18.34;67.13
81397;BME280;70852;49.908;8.126;2023-07-09T01:27:31;100557.91;;;18.27;68.13
81397;BME280;70852;49.908;8.126;2023-07-09T01:30:02;100566.50;;;18.19;68.11
81397;BME280;70852;49.908;8.126;2023-07-09T01:32:31;100565.03;;;18.25;67.49
81397;BME280;70852;49.908;8.126;2023-07-09T01:34:59;100562.69;;;18.27;67.07
81397;BME280;70852;49.908;8.126;2023-07-09T01:37:32;100564.97;;;18.21;67.15
81397;BME280;70852;49.908;8.126;2023-07-09T01:40:05;100567.78;;;18.21;67.01
81397;BME280;70852;49.908;8.126;2023-07-09T01:42:34;100568.19;;;18.23;67.04
81397;BME280;70852;49.908;8.126;2023-07-09T01:45:07;100562.09;;;18.18;67.25
81397;BME280;70852;49.908;8.126;2023-07-09T01:47:33;100570.19;;;18.23;67.22
81397;BME280;70852;49.908;8.126;2023-07-09T01:50:00;100575.34;;;18.21;67.60
81397;BME280;70852;49.908;8.126;2023-07-09T01:52:28;100562.28;;;18.09;67.54
81397;BME280;70852;49.908;8.126;2023-07-09T01:54:55;100558.69;;;18.09;66.82
81397;BME280;70852;49.908;8.126;2023-07-09T01:57:23;100564.28;;;17.93;66.46
81397;BME280;70852;49.908;8.126;2023-07-09T01:59:53;100569.53;;;17.79;67.32
81397;BME280;70852;49.908;8.126;2023-07-09T02:02:20;100567.16;;;17.81;67.34
81397;BME280;70852;49.908;8.126;2023-07-09T02:04:54;100574.84;;;17.84;67.96
81397;BME280;70852;49.908;8.126;2023-07-09T02:07:21;100561.59;;;17.81;67.85
81397;BME280;70852;49.908;8.126;2023-07-09T02:09:47;100570.06;;;17.69;68.45
81397;BME280;70852;49.908;8.126;2023-07-09T02:12:13;100568.16;;;17.57;68.90
81397;BME280;70852;49.908;8.126;2023-07-09T02:14:42;100567.69;;;17.55;69.23
81397;BME280;70852;49.908;8.126;2023-07-09T02:17:11;100569.31;;;17.56;69.21
81397;BME280;70852;49.908;8.126;2023-07-09T02:19:40;100571.53;;;17.50;69.48
81397;BME280;70852;49.908;8.126;2023-07-09T02:22:06;100570.31;;;17.48;69.81
81397;BME280;70852;49.908;8.126;2023-07-09T02:24:34;100570.03;;;17.53;69.79
81397;BME280;70852;49.908;8.126;2023-07-09T02:27:08;100565.44;;;17.61;69.83
81397;BME280;70852;49.908;8.126;2023-07-09T02:29:35;100560.88;;;17.68;69.59
81397;BME280;70852;49.908;8.126;2023-07-09T02:32:01;100566.72;;;17.63;69.81
81397;BME280;70852;49.908;8.126;2023-07-09T02:34:30;100571.53;;;17.50;70.09
81397;BME280;70852;49.908;8.126;2023-07-09T02:36:59;100574.78;;;17.52;70.36
81397;BME280;70852;49.908;8.126;2023-07-09T02:39:24;100579.09;;;17.50;69.73
81397;BME280;70852;49.908;8.126;2023-07-09T02:41:52;100575.44;;;17.46;70.03
81397;BME280;70852;49.908;8.126;2023-07-09T02:44:18;100579.47;;;17.33;70.64
81397;BME280;70852;49.908;8.126;2023-07-09T02:46:46;100581.09;;;17.34;70.69
81397;BME280;70852;49.908;8.126;2023-07-09T02:49:16;100590.06;;;17.27;70.89
81397;BME280;70852;49.908;8.126;2023-07-09T02:51:42;100580.69;;;17.19;71.16
81397;BME280;70852;49.908;8.126;2023-07-09T02:54:12;100586.78;;;17.09;71.13
81397;BME280;70852;49.908;8.126;2023-07-09T02:56:39;100590.69;;;16.93;71.34
81397;BME280;70852;49.908;8.126;2023-07-09T02:59:07;100583.50;;;16.92;71.34
81397;BME280;70852;49.908;8.126;2023-07-09T03:01:37;100582.22;;;16.89;71.44
81397;BME280;70852;49.908;8.126;2023-07-09T03:04:05;100593.69;;;17.00;70.86
81397;BME280;70852;49.908;8.126;2023-07-09T03:06:32;100594.03;;;16.98;70.60
81397;BME280;70852;49.908;8.126;2023-07-09T03:08:58;100597.53;;;16.95;71.48
81397;BME280;70852;49.908;8.126;2023-07-09T03:11:23;100597.31;;;16.88;71.72
81397;BME280;70852;49.908;8.126;2023-07-09T03:13:53;100605.19;;;16.98;72.18
81397;BME280;70852;49.908;8.126;2023-07-09T03:16:25;100598.81;;;16.98;73.12
81397;BME280;70852;49.908;8.126;2023-07-09T03:18:53;100606.66;;;17.08;72.97
81397;BME280;70852;49.908;8.126;2023-07-09T03:21:22;100612.34;;;17.11;72.66
81397;BME280;70852;49.908;8.126;2023-07-09T03:23:48;100619.00;;;17.07;72.44
81397;BME280;70852;49.908;8.126;2023-07-09T03:26:15;100614.50;;;17.02;72.80
81397;BME280;70852;49.908;8.126;2023-07-09T03:28:41;100612.88;;;17.01;72.51
81397;BME280;70852;49.908;8.126;2023-07-09T03:31:06;100615.00;;;16.92;71.88
81397;BME280;70852;49.908;8.126;2023-07-09T03:33:34;100620.09;;;16.90;72.02
81397;BME280;70852;49.908;8.126;2023-07-09T03:35:59;100618.78;;;16.72;71.73
81397;BME280;70852;49.908;8.126;2023-07-09T03:38:29;100624.94;;;16.65;71.83
81397;BME280;70852;49.908;8.126;2023-07-09T03:40:55;100622.25;;;16.57;72.39
81397;BME280;70852;49.908;8.126;2023-07-09T03:43:23;100622.38;;;16.60;73.00
81397;BME280;70852;49.908;8.126;2023-07-09T03:45:48;100621.91;;;16.70;72.24
81397;BME280;70852;49.908;8.126;2023-07-09T03:48:18;100623.63;;;16.75;72.37
81397;BME280;70852;49.908;8.126;2023-07-09T03:50:47;100625.03;;;16.81;72.54
81397;BME280;70852;49.908;8.126;2023-07-09T03:53:13;100632.19;;;16.94;73.03
81397;BME280;70852;49.908;8.126;2023-07-09T03:55:41;100631.28;;;16.90;72.71
81397;BME280;70852;49.908;8.126;2023-07-09T03:58:08;100636.22;;;16.97;72.69
81397;BME280;70852;49.908;8.126;2023-07-09T04:00:36;100638.34;;;16.88;73.12
81397;BME280;70852;49.908;8.126;2023-07-09T04:03:02;100629.03;;;16.96;72.80
81397;BME280;70852;49.908;8.126;2023-07-09T04:05:34;100629.53;;;16.86;73.00
81397;BME280;70852;49.908;8.126;2023-07-09T04:08:01;100633.00;;;16.95;73.22
81397;BME280;70852;49.908;8.126;2023-07-09T04:10:26;100630.63;;;17.09;72.43
81397;BME280;70852;49.908;8.126;2023-07-09T04:12:52;100638.53;;;17.07;72.61
81397;BME280;70852;49.908;8.126;2023-07-09T04:15:20;100634.09;;;17.06;73.17
81397;BME280;70852;49.908;8.126;2023-07-09T04:17:48;100631.81;;;16.96;73.49
81397;BME280;70852;49.908;8.126;2023-07-09T04:20:13;100628.13;;;16.92;73.81
81397;BME280;70852;49.908;8.126;2023-07-09T04:22:39;100632.75;;;17.00;73.89
81397;BME280;70852;49.908;8.126;2023-07-09T04:25:09;100639.69;;;17.06;73.26
81397;BME280;70852;49.908;8.126;2023-07-09T04:27:35;100643.59;;;17.17;73.49
81397;BME280;70852;49.908;8.126;2023-07-09T04:30:01;100642.91;;;17.20;73.22
81397;BME280;70852;49.908;8.126;2023-07-09T04:32:26;100636.28;;;17.40;72.56
81397;BME280;70852;49.908;8.126;2023-07-09T04:34:52;100647.47;;;17.40;72.25
81397;BME280;70852;49.908;8.126;2023-07-09T04:37:18;100632.50;;;17.48;71.07
81397;BME280;70852;49.908;8.126;2023-07-09T04:39:44;100636.03;;;17.45;70.46
81397;BME280;70852;49.908;8.126;2023-07-09T04:42:15;100641.19;;;17.59;69.76
81397;BME280;70852;49.908;8.126;2023-07-09T04:44:41;100638.31;;;17.55;70.17
81397;BME280;70852;49.908;8.126;2023-07-09T04:47:09;100638.03;;;17.61;69.88
81397;BME280;70852;49.908;8.126;2023-07-09T04:49:34;100638.28;;;17.68;69.69
81397;BME280;70852;49.908;8.126;2023-07-09T04:52:02;100643.94;;;17.71;70.21
81397;BME280;70852;49.908;8.126;2023-07-09T04:54:28;100640.53;;;17.78;69.94
81397;BME280;70852;49.908;8.126;2023-07-09T04:56:58;100639.09;;;17.84;69.93
81397;BME280;70852;49.908;8.126;2023-07-09T04:59:23;100639.19;;;17.87;70.24
81397;BME280;70852;49.908;8.126;2023-07-09T05:01:52;100636.22;;;17.96;69.28
81397;BME280;70852;49.908;8.126;2023-07-09T05:04:20;100638.81;;;18.05;69.52
81397;BME280;70852;49.908;8.126;2023-07-09T05:06:45;100633.78;;;18.10;70.24
81397;BME280;70852;49.908;8.126;2023-07-09T05:09:12;100629.63;;;18.20;69.42
81397;BME280;70852;49.908;8.126;2023-07-09T05:11:40;100630.25;;;18.13;69.64
81397;BME280;70852;49.908;8.126;2023-07-09T05:14:05;100635.53;;;18.34;69.54
81397;BME280;70852;49.908;8.126;2023-07-09T05:16:36;100631.38;;;18.44;69.64
81397;BME280;70852;49.908;8.126;2023-07-09T05:19:01;100634.13;;;18.75;68.28
81397;BME280;70852;49.908;8.126;2023-07-09T05:21:26;100640.75;;;18.67;69.19
81397;BME280;70852;49.908;8.126;2023-07-09T05:23:54;100643.84;;;18.62;69.61
81397;BME280;70852;49.908;8.126;2023-07-09T05:26:22;100638.84;;;18.55;70.41
81397;BME280;70852;49.908;8.126;2023-07-09T05:28:49;100636.41;;;18.70;70.31
81397;BME280;70852;49.908;8.126;2023-07-09T05:31:15;100638.28;;;18.81;70.17
81397;BME280;70852;49.908;8.126;2023-07-09T05:33:40;100639.00;;;18.78;70.30
81397;BME280;70852;49.908;8.126;2023-07-09T05:36:06;100638.13;;;18.74;70.03
81397;BME280;70852;49.908;8.126;2023-07-09T05:38:32;100636.78;;;18.87;69.72
81397;BME280;70852;49.908;8.126;2023-07-09T05:41:03;100636.25;;;19.17;69.40
81397;BME280;70852;49.908;8.126;2023-07-09T05:43:33;100631.31;;;19.49;68.45
81397;BME280;70852;49.908;8.126;2023-07-09T05:46:01;100620.53;;;19.73;67.96
81397;BME280;70852;49.908;8.126;2023-07-09T05:48:26;100627.25;;;19.92;67.71
81397;BME280;70852;49.908;8.126;2023-07-09T05:50:52;100635.66;;;19.92;66.32
81397;BME280;70852;49.908;8.126;2023-07-09T05:53:18;100634.31;;;20.05;66.98
81397;BME280;70852;49.908;8.126;2023-07-09T05:55:45;100638.28;;;20.27;65.28
81397;BME280;70852;49.908;8.126;2023-07-09T05:58:11;100645.41;;;20.43;65.18
81397;BME280;70852;49.908;8.126;2023-07-09T06:00:39;100639.53;;;20.56;64.83
81397;BME280;70852;49.908;8.126;2023-07-09T06:03:04;100637.19;;;20.58;64.83
81397;BME280;70852;49.908;8.126;2023-07-09T06:05:35;100651.25;;;20.61;65.71
81397;BME280;70852;49.908;8.126;2023-07-09T06:08:01;100640.56;;;20.70;64.61
81397;BME280;70852;49.908;8.126;2023-07-09T06:10:31;100643.25;;;20.90;63.90
81397;BME280;70852;49.908;8.126;2023-07-09T06:12:56;100650.81;;;21.15;64.01
81397;BME280;70852;49.908;8.126;2023-07-09T06:15:24;100649.56;;;21.43;62.35
81397;BME280;70852;49.908;8.126;2023-07-09T06:17:52;100647.34;;;21.59;62.40
81397;BME280;70852;49.908;8.126;2023-07-09T06:20:18;100644.56;;;21.63;62.25
81397;BME280;70852;49.908;8.126;2023-07-09T06:22:45;100646.75;;;21.80;61.53
81397;BME280;70852;49.908;8.126;2023-07-09T06:25:13;100648.06;;;21.89;61.48
81397;BME280;70852;49.908;8.126;2023-07-09T06:27:41;100644.69;;;22.14;61.49
81397;BME280;70852;49.908;8.126;2023-07-09T06:30:09;100652.09;;;22.36;59.92
81397;BME280;70852;49.908;8.126;2023-07-09T06:32:36;100652.66;;;22.56;60.05
81397;BME280;70852;49.908;8.126;2023-07-09T06:35:02;100653.97;;;22.73;59.32
81397;BME280;70852;49.908;8.126;2023-07-09T06:37:28;100640.88;;;23.02;57.18
81397;BME280;70852;49.908;8.126;2023-07-09T06:39:53;100645.09;;;23.47;56.25
81397;BME280;70852;49.908;8.126;2023-07-09T06:42:18;100647.56;;;23.52;56.35
81397;BME280;70852;49.908;8.126;2023-07-09T06:44:44;100649.63;;;23.90;54.82
81397;BME280;70852;49.908;8.126;2023-07-09T06:47:09;100652.53;;;24.36;53.93
81397;BME280;70852;49.908;8.126;2023-07-09T06:49:34;100649.13;;;25.20;51.38
81397;BME280;70852;49.908;8.126;2023-07-09T06:52:00;100647.59;;;25.81;49.63
81397;BME280;70852;49.908;8.126;2023-07-09T06:54:25;100645.69;;;26.22;48.22
81397;BME280;70852;49.908;8.126;2023-07-09T06:56:50;100654.94;;;26.71;47.52
81397;BME280;70852;49.908;8.126;2023-07-09T06:59:18;100652.88;;;27.13;45.90
81397;BME280;70852;49.908;8.126;2023-07-09T07:01:43;100658.00;;;27.25;44.40
81397;BME280;70852;49.908;8.126;2023-07-09T07:04:09;100659.41;;;27.74;42.98
81397;BME280;70852;49.908;8.126;2023-07-09T07:06:39;100658.66;;;28.24;41.46
81397;BME280;70852;49.908;8.126;2023-07-09T07:09:04;100658.44;;;28.11;39.87
81397;BME280;70852;49.908;8.126;2023-07-09T07:11:31;100657.69;;;28.34;39.37
81397;BME280;70852;49.908;8.126;2023-07-09T07:13:57;100649.59;;;28.32;40.26
81397;BME280;70852;49.908;8.126;2023-07-09T07:16:22;100646.88;;;28.49;39.68
81397;BME280;70852;49.908;8.126;2023-07-09T07:18:48;100642.97;;;28.86;39.74
81397;BME280;70852;49.908;8.126;2023-07-09T07:21:15;100637.94;;;28.27;40.36
81397;BME280;70852;49.908;8.126;2023-07-09T07:23:40;100635.00;;;28.30;40.78
81397;BME280;70852;49.908;8.126;2023-07-09T07:26:06;100629.03;;;29.31;38.40
81397;BME280;70852;49.908;8.126;2023-07-09T07:28:33;100630.34;;;29.46;38.12
81397;BME280;70852;49.908;8.126;2023-07-09T07:31:06;100628.75;;;29.05;38.51
81397;BME280;70852;49.908;8.126;2023-07-09T07:33:32;100622.63;;;29.46;39.08
81397;BME280;70852;49.908;8.126;2023-07-09T07:35:58;100616.56;;;29.80;38.11
81397;BME280;70852;49.908;8.126;2023-07-09T07:38:23;100626.16;;;30.51;36.96
81397;BME280;70852;49.908;8.126;2023-07-09T07:40:48;100626.72;;;30.46;36.77
81397;BME280;70852;49.908;8.126;2023-07-09T07:43:14;100630.84;;;30.62;36.34
81397;BME280;70852;49.908;8.126;2023-07-09T07:45:43;100629.84;;;30.68;35.91
81397;BME280;70852;49.908;8.126;2023-07-09T07:48:09;100632.88;;;30.12;35.57
81397;BME280;70852;49.908;8.126;2023-07-09T07:50:36;100635.25;;;30.79;34.41
81397;BME280;70852;49.908;8.126;2023-07-09T07:53:05;100631.59;;;30.62;35.59
81397;BME280;70852;49.908;8.126;2023-07-09T07:55:36;100630.13;;;30.86;34.90
81397;BME280;70852;49.908;8.126;2023-07-09T07:58:02;100632.31;;;30.95;34.88
81397;BME280;70852;49.908;8.126;2023-07-09T08:00:32;100632.53;;;30.88;34.81
81397;BME280;70852;49.908;8.126;2023-07-09T08:02:59;100643.19;;;31.00;34.24
81397;BME280;70852;49.908;8.126;2023-07-09T08:05:25;100640.25;;;31.04;34.86
81397;BME280;70852;49.908;8.126;2023-07-09T08:07:52;100636.19;;;31.17;35.14
81397;BME280;70852;49.908;8.126;2023-07-09T08:10:17;100630.66;;;31.39;33.88
81397;BME280;70852;49.908;8.126;2023-07-09T08:12:43;100637.50;;;31.00;34.80
81397;BME280;70852;49.908;8.126;2023-07-09T08:15:09;100632.41;;;30.30;35.74
81397;BME280;70852;49.908;8.126;2023-07-09T08:17:34;100625.81;;;30.66;36.34
81397;BME280;70852;49.908;8.126;2023-07-09T08:20:02;100621.22;;;30.55;35.08
81397;BME280;70852;49.908;8.126;2023-07-09T08:22:27;100611.59;;;30.49;35.59
81397;BME280;70852;49.908;8.126;2023-07-09T08:24:53;100617.13;;;30.85;36.94
81397;BME280;70852;49.908;8.126;2023-07-09T08:27:19;100610.41;;;30.63;34.48
81397;BME280;70852;49.908;8.126;2023-07-09T08:29:44;100611.03;;;31.00;34.83
81397;BME280;70852;49.908;8.126;2023-07-09T08:32:11;100621.34;;;31.10;35.21
81397;BME280;70852;49.908;8.126;2023-07-09T08:34:40;100621.16;;;31.29;34.69
81397;BME280;70852;49.908;8.126;2023-07-09T08:37:09;100609.41;;;31.27;35.81
81397;BME280;70852;49.908;8.126;2023-07-09T08:39:37;100613.09;;;31.41;35.34
81397;BME280;70852;49.908;8.126;2023-07-09T08:47:33;100615.97;;;31.91;34.65
81397;BME280;70852;49.908;8.126;2023-07-09T08:50:13;100619.75;;;32.26;34.25
81397;BME280;70852;49.908;8.126;2023-07-09T08:52:44;100611.50;;;32.41;32.97
81397;BME280;70852;49.908;8.126;2023-07-09T08:55:17;100618.94;;;32.13;33.72
81397;BME280;70852;49.908;8.126;2023-07-09T08:57:48;100615.81;;;32.33;34.42
81397;BME280;70852;49.908;8.126;2023-07-09T09:00:22;100612.22;;;32.20;33.88
81397;BME280;70852;49.908;8.126;2023-07-09T09:02:54;100612.59;;;32.44;33.16
81397;BME280;70852;49.908;8.126;2023-07-09T09:05:22;100618.28;;;32.91;32.92
81397;BME280;70852;49.908;8.126;2023-07-09T09:07:59;100622.28;;;32.93;32.65
81397;BME280;70852;49.908;8.126;2023-07-09T09:10:42;100618.56;;;32.84;31.18
81397;BME280;70852;49.908;8.126;2023-07-09T09:13:15;100607.84;;;33.40;30.69
81397;BME280;70852;49.908;8.126;2023-07-09T09:15:45;100598.28;;;33.34;30.99
81397;BME280;70852;49.908;8.126;2023-07-09T09:18:26;100616.88;;;33.17;30.68
81397;BME280;70852;49.908;8.126;2023-07-09T09:20:55;100610.06;;;33.67;30.66
81397;BME280;70852;49.908;8.126;2023-07-09T09:23:22;100607.94;;;33.90;29.98
81397;BME280;70852;49.908;8.126;2023-07-09T09:25:53;100600.25;;;33.47;29.84
81397;BME280;70852;49.908;8.126;2023-07-09T09:28:20;100601.09;;;33.56;31.30
81397;BME280;70852;49.908;8.126;2023-07-09T09:30:49;100598.59;;;34.07;30.33
81397;BME280;70852;49.908;8.126;2023-07-09T09:33:16;100600.66;;;34.07;28.14
81397;BME280;70852;49.908;8.126;2023-07-09T09:35:44;100607.84;;;34.11;26.77
81397;BME280;70852;49.908;8.126;2023-07-09T09:38:20;100596.94;;;34.37;28.13
81397;BME280;70852;49.908;8.126;2023-07-09T09:40:49;100604.41;;;34.44;26.80
81397;BME280;70852;49.908;8.126;2023-07-09T09:43:19;100609.22;;;34.74;26.88
81397;BME280;70852;49.908;8.126;2023-07-09T09:45:48;100614.50;;;35.03;27.24
81397;BME280;70852;49.908;8.126;2023-07-09T09:50:41;100601.56;;;35.26;26.66
81397;BME280;70852;49.908;8.126;2023-07-09T09:53:12;100602.66;;;35.29;26.63
81397;BME280;70852;49.908;8.126;2023-07-09T09:55:45;100591.16;;;35.29;25.77
81397;BME280;70852;49.908;8.126;2023-07-09T09:58:17;100581.66;;;35.98;25.99
81397;BME280;70852;49.908;8.126;2023-07-09T10:00:51;100590.28;;;35.98;26.19
81397;BME280;70852;49.908;8.126;2023-07-09T10:03:20;100584.06;;;35.57;24.96
81397;BME280;70852;49.908;8.126;2023-07-09T10:05:52;100585.53;;;36.18;24.63
81397;BME280;70852;49.908;8.126;2023-07-09T10:11:04;100578.44;;;36.76;24.26
81397;BME280;70852;49.908;8.126;2023-07-09T10:13:37;100570.53;;;36.62;24.65
81397;BME280;70852;49.908;8.126;2023-07-09T10:21:59;100561.28;;;35.86;24.52
81397;BME280;70852;49.908;8.126;2023-07-09T10:33:13;100551.53;;;37.09;22.72
81397;BME280;70852;49.908;8.126;2023-07-09T10:35:56;100544.78;;;36.82;23.16
81397;BME280;70852;49.908;8.126;2023-07-09T10:38:50;100542.31;;;37.49;22.83
81397;BME280;70852;49.908;8.126;2023-07-09T10:41:26;100538.09;;;37.29;22.93
81397;BME280;70852;49.908;8.126;2023-07-09T10:44:06;100533.91;;;35.76;23.24
81397;BME280;70852;49.908;8.126;2023-07-09T10:46:43;100532.06;;;35.88;22.91
81397;BME280;70852;49.908;8.126;2023-07-09T10:49:14;100532.31;;;35.66;23.17
81397;BME280;70852;49.908;8.126;2023-07-09T10:51:51;100525.91;;;35.80;23.13
81397;BME280;70852;49.908;8.126;2023-07-09T10:54:35;100531.81;;;35.77;24.25
81397;BME280;70852;49.908;8.126;2023-07-09T10:57:10;100529.09;;;36.69;23.49
81397;BME280;70852;49.908;8.126;2023-07-09T10:59:43;100528.63;;;36.85;22.99
81397;BME280;70852;49.908;8.126;2023-07-09T11:02:23;100530.28;;;36.23;22.47
81397;BME280;70852;49.908;8.126;2023-07-09T11:05:02;100525.59;;;36.26;22.89
81397;BME280;70852;49.908;8.126;2023-07-09T11:07:45;100532.19;;;36.80;22.46
81397;BME280;70852;49.908;8.126;2023-07-09T11:10:27;100529.69;;;35.86;22.25
81397;BME280;70852;49.908;8.126;2023-07-09T11:13:03;100526.03;;;36.34;22.80
81397;BME280;70852;49.908;8.126;2023-07-09T11:15:35;100511.66;;;36.34;22.45
81397;BME280;70852;49.908;8.126;2023-07-09T11:18:04;100515.72;;;36.80;21.99
81397;BME280;70852;49.908;8.126;2023-07-09T11:20:35;100517.41;;;36.72;21.63
81397;BME280;70852;49.908;8.126;2023-07-09T11:23:06;100520.16;;;37.11;22.26
81397;BME280;70852;49.908;8.126;2023-07-09T11:25:47;100520.19;;;36.81;21.54
81397;BME280;70852;49.908;8.126;2023-07-09T11:28:16;100513.63;;;36.81;21.42
81397;BME280;70852;49.908;8.126;2023-07-09T11:33:28;100510.22;;;36.05;22.10
81397;BME280;70852;49.908;8.126;2023-07-09T11:36:23;100513.19;;;36.58;22.25
81397;BME280;70852;49.908;8.126;2023-07-09T11:38:51;100506.09;;;36.45;21.47
81397;BME280;70852;49.908;8.126;2023-07-09T11:44:22;100505.41;;;36.74;21.81
81397;BME280;70852;49.908;8.126;2023-07-09T11:50:01;100506.50;;;36.76;21.58
81397;BME280;70852;49.908;8.126;2023-07-09T11:55:24;100507.38;;;37.12;19.09
81397;BME280;70852;49.908;8.126;2023-07-09T11:57:58;100499.53;;;37.12;20.50
81397;BME280;70852;49.908;8.126;2023-07-09T12:00:26;100501.75;;;37.17;20.45
81397;BME280;70852;49.908;8.126;2023-07-09T12:02:54;100485.91;;;37.42;20.80
81397;BME280;70852;49.908;8.126;2023-07-09T12:05:26;100492.19;;;37.11;19.77
81397;BME280;70852;49.908;8.126;2023-07-09T12:07:56;100489.16;;;36.32;20.78
81397;BME280;70852;49.908;8.126;2023-07-09T12:10:32;100483.97;;;37.04;21.43
81397;BME280;70852;49.908;8.126;2023-07-09T12:13:04;100478.09;;;36.98;20.36
81397;BME280;70852;49.908;8.126;2023-07-09T12:15:30;100480.69;;;36.96;21.26
81397;BME280;70852;49.908;8.126;2023-07-09T12:18:02;100465.91;;;37.18;20.27
81397;BME280;70852;49.908;8.126;2023-07-09T12:20:33;100466.88;;;37.00;20.29
81397;BME280;70852;49.908;8.126;2023-07-09T12:23:09;100466.84;;;36.56;20.19
81397;BME280;70852;49.908;8.126;2023-07-09T12:25:36;100461.69;;;36.46;19.65
81397;BME280;70852;49.908;8.126;2023-07-09T12:28:04;100456.97;;;36.87;20.42
81397;BME280;70852;49.908;8.126;2023-07-09T12:30:33;100459.66;;;36.76;20.77
81397;BME280;70852;49.908;8.126;2023-07-09T12:33:06;100451.00;;;36.90;20.33
81397;BME280;70852;49.908;8.126;2023-07-09T12:35:32;100443.47;;;37.08;20.00
81397;BME280;70852;49.908;8.126;2023-07-09T12:38:00;100434.81;;;37.22;18.96
81397;BME280;70852;49.908;8.126;2023-07-09T12:40:28;100431.47;;;37.44;18.91
81397;BME280;70852;49.908;8.126;2023-07-09T12:42:55;100434.41;;;37.29;19.52
81397;BME280;70852;49.908;8.126;2023-07-09T12:45:24;100422.09;;;36.99;19.39
81397;BME280;70852;49.908;8.126;2023-07-09T12:47:54;100428.81;;;36.76;19.76
81397;BME280;70852;49.908;8.126;2023-07-09T12:50:28;100420.34;;;36.87;19.58
81397;BME280;70852;49.908;8.126;2023-07-09T12:52:55;100419.72;;;37.13;19.26
81397;BME280;70852;49.908;8.126;2023-07-09T12:55:25;100409.66;;;36.73;19.12
81397;BME280;70852;49.908;8.126;2023-07-09T12:57:56;100408.63;;;36.47;19.69
81397;BME280;70852;49.908;8.126;2023-07-09T13:00:31;100409.13;;;36.45;19.36
81397;BME280;70852;49.908;8.126;2023-07-09T13:02:58;100408.94;;;36.93;19.56
81397;BME280;70852;49.908;8.126;2023-07-09T13:05:25;100392.63;;;37.05;19.65
81397;BME280;70852;49.908;8.126;2023-07-09T13:07:59;100394.97;;;36.71;19.77
81397;BME280;70852;49.908;8.126;2023-07-09T13:13:10;100398.03;;;36.97;19.67
81397;BME280;70852;49.908;8.126;2023-07-09T13:18:09;100383.06;;;37.28;18.97
81397;BME280;70852;49.908;8.126;2023-07-09T13:20:39;100383.59;;;37.47;18.83
81397;BME280;70852;49.908;8.126;2023-07-09T13:23:14;100386.59;;;36.88;18.04
81397;BME280;70852;49.908;8.126;2023-07-09T13:25:40;100400.59;;;36.65;18.52
81397;BME280;70852;49.908;8.126;2023-07-09T13:28:26;100401.38;;;36.95;18.90
81397;BME280;70852;49.908;8.126;2023-07-09T13:30:56;100386.28;;;37.00;18.40
81397;BME280;70852;49.908;8.126;2023-07-09T13:33:23;100394.34;;;36.96;18.08
81397;BME280;70852;49.908;8.126;2023-07-09T13:35:49;100376.59;;;36.54;18.91
81397;BME280;70852;49.908;8.126;2023-07-09T13:38:20;100376.91;;;36.71;18.54
81397;BME280;70852;49.908;8.126;2023-07-09T13:41:00;100380.16;;;36.78;18.59
81397;BME280;70852;49.908;8.126;2023-07-09T13:43:32;100388.00;;;36.92;18.13
81397;BME280;70852;49.908;8.126;2023-07-09T13:45:59;100387.44;;;37.09;18.55
81397;BME280;70852;49.908;8.126;2023-07-09T13:48:26;100385.13;;;36.78;18.15
81397;BME280;70852;49.908;8.126;2023-07-09T13:50:53;100386.13;;;36.75;18.96